createdAt,value
2019-02-24T00:00:51.931Z,45.3
2019-02-24T00:05:48.741Z,45
2019-02-24T00:10:45.536Z,45.7
2019-02-24T00:15:42.570Z,45.1
2019-02-24T00:20:39.265Z,45.7
2019-02-24T00:25:36.059Z,45.4
2019-02-24T00:30:32.381Z,46
2019-02-24T00:35:29.468Z,45.4
2019-02-24T00:40:26.109Z,46
2019-02-24T00:45:23.116Z,45.8
2019-02-24T00:50:19.920Z,46.8
2019-02-24T00:55:14.193Z,46.6
2019-02-24T01:00:11.242Z,45.6
2019-02-24T01:05:08.513Z,46.2
2019-02-24T01:10:05.493Z,46.2
2019-02-24T01:15:02.176Z,45.9
2019-02-24T01:19:59.145Z,46.2
2019-02-24T01:24:59.640Z,46.1
2019-02-24T01:29:55.716Z,46.7
2019-02-24T01:34:52.495Z,47.4
2019-02-24T01:39:49.328Z,48.2
2019-02-24T01:44:46.342Z,47.6
2019-02-24T01:49:43.141Z,47.3
2019-02-24T01:54:40.139Z,47.3
2019-02-24T01:59:36.975Z,46.9
2019-02-24T02:04:33.571Z,47.2
2019-02-24T02:09:30.574Z,46.9
2019-02-24T02:14:27.375Z,47.2
2019-02-24T02:19:23.645Z,46.7
2019-02-24T02:24:20.389Z,47.4
2019-02-24T02:29:17.067Z,46.9
2019-02-24T02:34:13.994Z,47.4
2019-02-24T02:39:11.166Z,46.4
2019-02-24T02:44:07.695Z,47.3
2019-02-24T02:49:04.736Z,46.7
2019-02-24T02:54:01.613Z,47.1
2019-02-24T02:58:58.512Z,46.7
2019-02-24T03:03:55.482Z,46.7
2019-02-24T03:08:52.097Z,47.1
2019-02-24T03:13:48.934Z,47.1
2019-02-24T03:18:46.044Z,47
2019-02-24T03:23:43.113Z,46.1
2019-02-24T03:28:39.981Z,47
2019-02-24T03:33:36.742Z,46.6
2019-02-24T03:38:33.379Z,46.9
2019-02-24T03:43:30.166Z,45
2019-02-24T03:48:26.730Z,45.6
2019-02-24T03:53:23.738Z,45.9
2019-02-24T03:58:20.524Z,45.1
2019-02-24T04:03:17.387Z,45.4
2019-02-24T04:08:13.835Z,45.3
2019-02-24T04:13:10.638Z,46
2019-02-24T04:18:07.597Z,46.1
2019-02-24T04:23:04.565Z,46.1
2019-02-24T04:28:00.728Z,46.4
2019-02-24T04:32:57.711Z,46.4
2019-02-24T04:37:54.588Z,46.7
2019-02-24T04:42:51.435Z,45.9
2019-02-24T04:47:48.481Z,45.9
2019-02-24T04:52:45.403Z,46
2019-02-24T04:57:42.266Z,45.6
2019-02-24T05:02:39.001Z,47.2
2019-02-24T05:07:35.250Z,47.9
2019-02-24T05:12:32.010Z,47.9
2019-02-24T05:17:28.780Z,48.2
2019-02-24T05:22:25.129Z,48.6
2019-02-24T05:27:21.942Z,49.2
2019-02-24T05:32:18.471Z,50
2019-02-24T05:37:15.182Z,50.7
2019-02-24T05:42:12.009Z,51.2
2019-02-24T05:47:08.982Z,49.9
2019-02-24T05:52:05.696Z,48.9
2019-02-24T05:57:02.375Z,49.4
2019-02-24T06:01:59.202Z,49
2019-02-24T06:06:55.623Z,48.8
2019-02-24T06:11:52.052Z,49.3
2019-02-24T06:16:49.124Z,49.1
2019-02-24T06:21:46.111Z,49.4
2019-02-24T06:26:42.938Z,48.3
2019-02-24T06:31:39.746Z,47.7
2019-02-24T06:36:36.823Z,47.3
2019-02-24T06:41:33.515Z,45.9
2019-02-24T06:46:30.664Z,45.8
2019-02-24T06:51:27.364Z,45.8
2019-02-24T06:56:23.777Z,46
2019-02-24T07:01:20.590Z,46.2
2019-02-24T07:06:17.162Z,46
2019-02-24T07:11:13.914Z,45.9
2019-02-24T07:16:10.889Z,46.1
2019-02-24T07:21:07.922Z,45.8
2019-02-24T07:26:04.797Z,45.2
2019-02-24T07:31:01.414Z,45.6
2019-02-24T07:35:57.617Z,45.1
2019-02-24T07:40:54.393Z,44.4
2019-02-24T07:45:51.192Z,44.1
2019-02-24T07:50:48.148Z,44.2
2019-02-24T07:55:45.012Z,43.5
2019-02-24T08:00:41.696Z,43.2
2019-02-24T08:05:38.665Z,43.4
2019-02-24T08:10:35.369Z,43.2
2019-02-24T08:15:32.479Z,42.1
2019-02-24T08:20:29.356Z,42.7
2019-02-24T08:25:25.891Z,42.4
2019-02-24T08:30:22.763Z,42.5
2019-02-24T08:35:19.585Z,42.1
2019-02-24T08:40:16.162Z,41.9
2019-02-24T08:45:13.033Z,41.5
2019-02-24T08:50:09.919Z,41.9
2019-02-24T08:55:06.803Z,41.2
2019-02-24T09:00:03.807Z,41.2
2019-02-24T09:05:00.379Z,41.1
2019-02-24T09:09:57.250Z,41.2
2019-02-24T09:14:54.078Z,41.7
2019-02-24T09:19:51.004Z,40.9
2019-02-24T09:24:47.512Z,40.8
2019-02-24T09:29:44.454Z,40.2
2019-02-24T09:34:41.530Z,40
2019-02-24T09:39:38.250Z,40.6
2019-02-24T09:44:35.339Z,40.4
2019-02-24T09:49:32.407Z,40.6
2019-02-24T09:54:29.490Z,39.8
2019-02-24T09:59:26.537Z,39.4
2019-02-24T10:04:23.579Z,39
2019-02-24T10:09:20.471Z,39.1
2019-02-24T10:14:17.346Z,39.1
2019-02-24T10:19:14.350Z,38
2019-02-24T10:24:11.707Z,37.9
2019-02-24T10:29:08.619Z,35.7
2019-02-24T10:34:07.498Z,36
2019-02-24T10:39:02.417Z,35.9
2019-02-24T10:43:59.750Z,35.8
2019-02-24T10:49:03.048Z,34
2019-02-24T10:53:53.447Z,34.9
2019-02-24T10:58:49.674Z,36.2
2019-02-24T11:03:46.898Z,36
2019-02-24T11:08:43.652Z,34.7
2019-02-24T11:13:40.982Z,35.7
2019-02-24T11:18:37.959Z,35.2
2019-02-24T11:23:35.177Z,35.2
2019-02-24T11:28:31.988Z,36.3
2019-02-24T11:33:29.123Z,36.5
2019-02-24T11:38:26.098Z,36.3
2019-02-24T11:43:23.215Z,36.3
2019-02-24T11:48:20.223Z,37.1
2019-02-24T11:53:17.210Z,36.2
2019-02-24T11:58:13.660Z,37.6
2019-02-24T12:03:10.767Z,37.8
2019-02-24T12:08:07.489Z,36.8
2019-02-24T12:13:04.351Z,38
2019-02-24T12:18:01.187Z,37.3
2019-02-24T12:22:58.105Z,36.9
2019-02-24T12:27:55.310Z,37.2
2019-02-24T12:32:52.225Z,37.9
2019-02-24T12:37:49.165Z,38.7
2019-02-24T12:42:46.193Z,37.7
2019-02-24T12:47:43.264Z,38.3
2019-02-24T12:52:39.843Z,38.1
2019-02-24T12:57:36.532Z,39.2
2019-02-24T13:02:33.065Z,39
2019-02-24T13:07:29.801Z,39.6
2019-02-24T13:12:26.789Z,39.5
2019-02-24T13:17:23.321Z,40.3
2019-02-24T13:22:20.246Z,40.3
2019-02-24T13:27:17.316Z,40.6
2019-02-24T13:32:14.982Z,39.5
2019-02-24T13:37:11.386Z,40.6
2019-02-24T13:42:08.342Z,40.4
2019-02-24T13:47:05.142Z,40
2019-02-24T13:52:02.066Z,41.6
2019-02-24T13:56:59.114Z,40.6
2019-02-24T14:01:55.657Z,41
2019-02-24T14:06:52.509Z,41.1
2019-02-24T14:11:49.471Z,40.9
2019-02-24T14:16:46.280Z,41.2
2019-02-24T14:21:42.531Z,41
2019-02-24T14:26:39.532Z,41.7
2019-02-24T14:31:36.308Z,40.5
2019-02-24T14:36:33.207Z,40.5
2019-02-24T14:41:30.198Z,40.8
2019-02-24T14:46:26.873Z,41.3
2019-02-24T14:51:23.787Z,41
2019-02-24T14:56:20.674Z,41.5
2019-02-24T15:01:17.702Z,42.2
2019-02-24T15:06:14.534Z,41.6
2019-02-24T15:11:11.482Z,41.4
2019-02-24T15:16:08.214Z,41.5
2019-02-24T15:21:05.423Z,41.1
2019-02-24T15:26:02.435Z,42
2019-02-24T15:30:59.163Z,41.9
2019-02-24T15:35:56.502Z,41.7
2019-02-24T15:40:53.209Z,42.4
2019-02-24T15:45:49.979Z,42
2019-02-24T15:50:47.028Z,42.4
2019-02-24T15:55:43.698Z,42.6
2019-02-24T16:00:40.521Z,42.9
2019-02-24T16:05:37.451Z,42.6
2019-02-24T16:10:34.351Z,43.2
2019-02-24T16:15:31.288Z,42.6
2019-02-24T16:20:27.794Z,43.4
2019-02-24T16:25:24.474Z,43.4
2019-02-24T16:30:21.374Z,43.3
2019-02-24T16:35:18.277Z,43.4
2019-02-24T16:40:15.299Z,43.7
2019-02-24T16:45:11.856Z,43.8
2019-02-24T16:50:08.655Z,43.9
2019-02-24T16:55:05.614Z,43.9
2019-02-24T17:00:02.436Z,44.1
2019-02-24T17:04:59.190Z,44.1
2019-02-24T17:09:56.040Z,44.2
2019-02-24T17:14:52.822Z,44.5
2019-02-24T17:19:49.632Z,44.4
2019-02-24T17:24:46.631Z,44.1
2019-02-24T17:29:43.090Z,44.6
2019-02-24T17:34:40.080Z,44.2
2019-02-24T17:39:36.932Z,44.6
2019-02-24T17:44:33.842Z,44.4
2019-02-24T17:49:30.849Z,44.7
2019-02-24T17:54:27.764Z,44.7
2019-02-24T17:59:24.985Z,44.6
2019-02-24T18:04:23.751Z,44.8
2019-02-24T18:09:20.154Z,45.2
2019-02-24T18:14:17.171Z,45.6
2019-02-24T18:19:13.769Z,45.1
2019-02-24T18:24:11.145Z,45.9
2019-02-24T18:29:07.987Z,45.4
2019-02-24T18:34:05.106Z,45.4
2019-02-24T18:39:02.039Z,45.5
2019-02-24T18:43:58.926Z,45.7
2019-02-24T18:48:55.905Z,45.8
2019-02-24T18:53:52.845Z,45.9
2019-02-24T18:58:49.531Z,45.6
2019-02-24T19:03:46.228Z,45.9
2019-02-24T19:08:42.812Z,45.3
2019-02-24T19:13:40.410Z,45
2019-02-24T19:18:37.038Z,45.3
2019-02-24T19:23:34.013Z,45.6
2019-02-24T19:28:31.054Z,45.4
2019-02-24T19:33:28.001Z,44.8
2019-02-24T19:38:24.754Z,44.8
2019-02-24T19:43:21.335Z,44.4
2019-02-24T19:48:18.166Z,44.2
2019-02-24T19:53:14.673Z,44.3
2019-02-24T19:58:10.580Z,44.2
2019-02-24T20:03:07.169Z,44.5
2019-02-24T20:08:04.008Z,44.1
2019-02-24T20:13:00.969Z,44.4
2019-02-24T20:17:57.684Z,44.5
2019-02-24T20:22:54.512Z,44.7
2019-02-24T20:27:52.021Z,44.7
2019-02-24T20:32:48.550Z,44.1
2019-02-24T20:37:45.456Z,44.1
2019-02-24T20:42:42.423Z,44.2
2019-02-24T20:47:39.223Z,44.7
2019-02-24T20:52:35.848Z,44.4
2019-02-24T20:57:32.866Z,44.4
2019-02-24T21:02:30.042Z,43.8
2019-02-24T21:07:25.951Z,43.8
2019-02-24T21:12:23.069Z,44.2
2019-02-24T21:17:19.848Z,44.2
2019-02-24T21:22:16.762Z,44.8
2019-02-24T21:27:13.826Z,45.1
2019-02-24T21:32:10.874Z,45
2019-02-24T21:37:07.506Z,45.2
2019-02-24T21:42:04.034Z,44.9
2019-02-24T21:47:00.930Z,45.3
2019-02-24T21:51:57.544Z,44.9
2019-02-24T21:56:54.331Z,45
2019-02-24T22:01:51.279Z,44.7
2019-02-24T22:06:48.123Z,44.5
2019-02-24T22:11:45.114Z,44.6
2019-02-24T22:16:41.693Z,44.3
2019-02-24T22:21:38.694Z,44.3
2019-02-24T22:26:35.598Z,44.6
2019-02-24T22:31:32.637Z,44.9
2019-02-24T22:36:29.505Z,45
2019-02-24T22:41:26.198Z,44.7
2019-02-24T22:46:23.002Z,44.7
2019-02-24T22:51:20.041Z,45.7
2019-02-24T22:56:16.878Z,46.4
2019-02-24T23:01:13.800Z,46.5
2019-02-24T23:06:10.429Z,46.9
2019-02-24T23:11:07.048Z,46.7
2019-02-24T23:16:03.915Z,47
2019-02-24T23:21:01.011Z,47.4
2019-02-24T23:25:57.991Z,47.2
2019-02-24T23:30:54.978Z,47.4
2019-02-24T23:35:51.983Z,47.5
2019-02-24T23:40:49.088Z,47.8
2019-02-24T23:45:45.841Z,47.3
2019-02-24T23:50:42.797Z,47
2019-02-24T23:55:40.107Z,47.8
